createdAt,value
2019-04-11T00:00:29.848Z,18.94
2019-04-11T00:01:36.896Z,18.87
2019-04-11T00:02:29.216Z,18.94
2019-04-11T00:03:25.853Z,18.94
2019-04-11T00:04:22.547Z,18.87
2019-04-11T00:05:19.161Z,18.87
2019-04-11T00:06:15.852Z,18.87
2019-04-11T00:07:12.557Z,18.87
2019-04-11T00:08:10.132Z,18.87
2019-04-11T00:09:08.690Z,18.87
2019-04-11T00:10:06.248Z,18.87
2019-04-11T00:11:03.790Z,18.87
2019-04-11T00:12:00.505Z,18.87
2019-04-11T00:12:57.232Z,18.87
2019-04-11T00:13:53.924Z,18.87
2019-04-11T00:14:51.592Z,18.87
2019-04-11T00:15:48.800Z,18.87
2019-04-11T00:16:45.681Z,18.87
2019-04-11T00:17:42.366Z,18.87
2019-04-11T00:18:39.093Z,18.87
2019-04-11T00:19:35.889Z,18.87
2019-04-11T00:20:32.593Z,18.87
2019-04-11T00:21:29.297Z,18.81
2019-04-11T00:22:26.002Z,18.81
2019-04-11T00:23:23.865Z,18.81
2019-04-11T00:24:20.853Z,18.81
2019-04-11T00:25:17.743Z,18.81
2019-04-11T00:26:14.445Z,18.81
2019-04-11T00:27:11.146Z,18.81
2019-04-11T00:28:07.879Z,18.81
2019-04-11T00:29:04.531Z,18.81
2019-04-11T00:30:01.922Z,18.81
2019-04-11T00:30:58.828Z,18.81
2019-04-11T00:31:55.541Z,18.81
2019-04-11T00:32:52.232Z,18.81
2019-04-11T00:33:48.975Z,18.81
2019-04-11T00:34:46.915Z,18.81
2019-04-11T00:35:44.007Z,18.81
2019-04-11T00:36:40.842Z,18.81
2019-04-11T00:37:37.568Z,18.81
2019-04-11T00:38:34.293Z,18.81
2019-04-11T00:39:31.929Z,18.81
2019-04-11T00:40:29.087Z,18.81
2019-04-11T00:41:25.969Z,18.81
2019-04-11T00:42:22.862Z,18.75
2019-04-11T00:43:30.849Z,18.75
2019-04-11T00:44:18.821Z,18.75
2019-04-11T00:45:15.880Z,18.75
2019-04-11T00:46:12.692Z,18.75
2019-04-11T00:47:09.397Z,18.75
2019-04-11T00:48:06.120Z,18.75
2019-04-11T00:49:02.932Z,18.75
2019-04-11T00:49:59.627Z,18.75
2019-04-11T00:50:56.329Z,18.75
2019-04-11T00:51:53.032Z,18.75
2019-04-11T00:52:49.747Z,18.75
2019-04-11T00:53:46.580Z,18.75
2019-04-11T00:54:43.269Z,18.75
2019-04-11T00:55:39.960Z,18.75
2019-04-11T00:56:36.745Z,18.75
2019-04-11T00:57:33.457Z,18.75
2019-04-11T00:58:30.161Z,18.75
2019-04-11T00:59:26.871Z,18.75
2019-04-11T01:00:23.569Z,18.75
2019-04-11T01:01:20.265Z,18.75
2019-04-11T01:02:17.734Z,18.75
2019-04-11T01:03:14.496Z,18.75
2019-04-11T01:04:11.676Z,18.69
2019-04-11T01:05:09.541Z,18.75
2019-04-11T01:06:06.300Z,18.69
2019-04-11T01:07:02.921Z,18.69
2019-04-11T01:07:59.720Z,18.69
2019-04-11T01:08:56.353Z,18.69
2019-04-11T01:09:53.062Z,18.69
2019-04-11T01:10:49.831Z,18.69
2019-04-11T01:11:46.460Z,18.69
2019-04-11T01:12:43.161Z,18.69
2019-04-11T01:13:47.762Z,18.69
2019-04-11T01:14:38.638Z,18.69
2019-04-11T01:15:36.462Z,18.69
2019-04-11T01:16:50.929Z,18.69
2019-04-11T01:17:47.666Z,18.69
2019-04-11T01:18:44.497Z,18.69
2019-04-11T01:19:41.257Z,18.69
2019-04-11T01:20:37.966Z,18.69
2019-04-11T01:21:34.897Z,18.69
2019-04-11T01:22:31.978Z,18.69
2019-04-11T01:23:29.175Z,18.69
2019-04-11T01:24:26.003Z,18.69
2019-04-11T01:25:22.701Z,18.69
2019-04-11T01:26:19.397Z,18.69
2019-04-11T01:27:16.110Z,18.69
2019-04-11T01:28:12.820Z,18.69
2019-04-11T01:29:09.517Z,18.69
2019-04-11T01:30:06.614Z,18.69
2019-04-11T01:31:09.174Z,18.62
2019-04-11T01:32:08.367Z,18.62
2019-04-11T01:33:05.173Z,18.69
2019-04-11T01:34:02.404Z,18.69
2019-04-11T01:34:59.217Z,18.62
2019-04-11T01:35:55.879Z,18.62
2019-04-11T01:36:53.416Z,18.62
2019-04-11T01:37:50.237Z,18.62
2019-04-11T01:38:50.496Z,18.62
2019-04-11T01:39:59.252Z,18.62
2019-04-11T01:40:56.210Z,18.62
2019-04-11T01:41:53.113Z,18.62
2019-04-11T01:42:49.813Z,18.62
2019-04-11T01:43:53.470Z,18.62
2019-04-11T01:44:46.041Z,18.62
2019-04-11T01:45:43.568Z,18.62
2019-04-11T01:46:40.328Z,18.62
2019-04-11T01:47:51.086Z,18.62
2019-04-11T01:49:02.129Z,18.62
2019-04-11T01:49:58.765Z,18.62
2019-04-11T01:50:55.448Z,18.62
2019-04-11T01:51:52.154Z,18.62
2019-04-11T01:52:48.857Z,18.62
2019-04-11T01:53:45.564Z,18.62
2019-04-11T01:54:42.269Z,18.62
2019-04-11T01:55:38.972Z,18.62
2019-04-11T01:56:35.673Z,18.62
2019-04-11T01:57:32.356Z,18.56
2019-04-11T01:58:28.997Z,18.56
2019-04-11T01:59:25.689Z,18.56
2019-04-11T02:00:42.400Z,18.62
2019-04-11T02:01:55.273Z,18.56
2019-04-11T02:02:55.136Z,18.56
2019-04-11T02:04:14.128Z,18.56
2019-04-11T02:05:20.941Z,18.56
2019-04-11T02:06:18.031Z,18.56
2019-04-11T02:07:14.830Z,18.56
2019-04-11T02:08:11.529Z,18.56
2019-04-11T02:09:08.245Z,18.56
2019-04-11T02:10:04.953Z,18.56
2019-04-11T02:11:01.641Z,18.56
2019-04-11T02:11:58.357Z,18.56
2019-04-11T02:12:55.298Z,18.56
2019-04-11T02:13:55.897Z,18.56
2019-04-11T02:14:50.577Z,18.56
2019-04-11T02:15:48.304Z,18.56
2019-04-11T02:16:45.346Z,18.56
2019-04-11T02:17:43.027Z,18.56
2019-04-11T02:18:39.905Z,18.56
2019-04-11T02:19:36.639Z,18.56
2019-04-11T02:20:33.411Z,18.56
2019-04-11T02:21:30.128Z,18.56
2019-04-11T02:22:42.438Z,18.56
2019-04-11T02:23:56.935Z,18.56
2019-04-11T02:24:59.129Z,18.56
2019-04-11T02:26:03.086Z,18.56
2019-04-11T02:27:08.541Z,18.50
2019-04-11T02:28:06.550Z,18.56
2019-04-11T02:29:03.569Z,18.56
2019-04-11T02:30:01.137Z,18.50
2019-04-11T02:30:58.104Z,18.50
2019-04-11T02:31:55.061Z,18.56
2019-04-11T02:32:53.608Z,18.50
2019-04-11T02:33:51.173Z,18.50
2019-04-11T02:34:50.444Z,18.50
2019-04-11T02:35:49.046Z,18.50
2019-04-11T02:36:45.626Z,18.50
2019-04-11T02:37:44.233Z,18.50
2019-04-11T02:38:41.312Z,18.50
2019-04-11T02:39:38.598Z,18.50
2019-04-11T02:40:36.812Z,18.50
2019-04-11T02:41:35.332Z,18.50
2019-04-11T02:42:32.988Z,18.50
2019-04-11T02:43:29.777Z,18.50
2019-04-11T02:44:43.108Z,18.50
2019-04-11T02:45:36.387Z,18.50
2019-04-11T02:46:35.637Z,18.50
2019-04-11T02:47:25.389Z,18.50
2019-04-11T02:48:20.800Z,18.50
2019-04-11T02:49:19.259Z,18.50
2019-04-11T02:50:19.156Z,18.50
2019-04-11T02:51:15.164Z,18.50
2019-04-11T02:52:13.365Z,18.50
2019-04-11T02:53:10.181Z,18.50
2019-04-11T02:54:07.664Z,18.50
2019-04-11T02:55:05.763Z,18.50
2019-04-11T02:56:03.005Z,18.50
2019-04-11T02:57:00.667Z,18.50
2019-04-11T02:57:59.768Z,18.50
2019-04-11T02:58:56.707Z,18.44
2019-04-11T02:59:55.602Z,18.44
2019-04-11T03:00:53.719Z,18.50
2019-04-11T03:01:50.873Z,18.50
2019-04-11T03:02:52.044Z,18.44
2019-04-11T03:03:47.539Z,18.44
2019-04-11T03:04:45.857Z,18.50
2019-04-11T03:05:44.137Z,18.50
2019-04-11T03:06:41.798Z,18.50
2019-04-11T03:07:40.019Z,18.44
2019-04-11T03:08:38.644Z,18.44
2019-04-11T03:09:35.400Z,18.44
2019-04-11T03:10:33.679Z,18.44
2019-04-11T03:11:32.371Z,18.44
2019-04-11T03:12:29.695Z,18.44
2019-04-11T03:13:29.289Z,18.44
2019-04-11T03:14:27.741Z,18.44
2019-04-11T03:15:39.888Z,18.44
2019-04-11T03:16:35.360Z,18.44
2019-04-11T03:17:27.489Z,18.44
2019-04-11T03:18:40.783Z,18.44
2019-04-11T03:19:36.129Z,18.44
2019-04-11T03:20:26.595Z,18.44
2019-04-11T03:21:20.498Z,18.44
2019-04-11T03:22:14.219Z,18.44
2019-04-11T03:23:14.446Z,18.44
2019-04-11T03:24:10.830Z,18.44
2019-04-11T03:25:08.590Z,18.44
2019-04-11T03:26:07.380Z,18.44
2019-04-11T03:27:05.021Z,18.44
2019-04-11T03:28:02.846Z,18.44
2019-04-11T03:28:59.818Z,18.44
2019-04-11T03:29:57.911Z,18.44
2019-04-11T03:31:27.295Z,18.44
2019-04-11T03:35:37.746Z,18.44
2019-04-11T03:38:05.584Z,18.44
2019-04-11T03:39:08.939Z,18.44
2019-04-11T03:39:59.596Z,18.44
2019-04-11T03:40:57.741Z,18.44
2019-04-11T03:41:54.815Z,18.37
2019-04-11T03:42:50.410Z,18.37
2019-04-11T03:43:48.638Z,18.44
2019-04-11T03:44:40.186Z,18.37
2019-04-11T03:45:52.734Z,18.37
2019-04-11T03:46:48.299Z,18.44
2019-04-11T03:47:41.267Z,18.37
2019-04-11T03:48:40.559Z,18.37
2019-04-11T03:49:36.556Z,18.37
2019-04-11T03:50:29.744Z,18.37
2019-04-11T03:51:25.603Z,18.37
2019-04-11T03:52:23.727Z,18.37
2019-04-11T03:53:23.446Z,18.37
2019-04-11T03:54:20.938Z,18.37
2019-04-11T03:55:19.354Z,18.37
2019-04-11T03:56:18.260Z,18.37
2019-04-11T03:57:15.673Z,18.37
2019-04-11T03:58:14.917Z,18.37
2019-04-11T03:59:14.828Z,18.37
2019-04-11T04:00:12.712Z,18.37
2019-04-11T04:01:11.487Z,18.37
2019-04-11T04:02:07.939Z,18.37
2019-04-11T04:03:06.155Z,18.37
2019-04-11T04:04:03.452Z,18.37
2019-04-11T04:05:01.350Z,18.37
2019-04-11T04:05:59.980Z,18.37
2019-04-11T04:06:57.807Z,18.37
2019-04-11T04:07:55.820Z,18.37
2019-04-11T04:08:55.303Z,18.37
2019-04-11T04:09:53.690Z,18.37
2019-04-11T04:11:10.152Z,18.37
2019-04-11T04:12:07.185Z,18.37
2019-04-11T04:13:05.419Z,18.37
2019-04-11T04:14:12.628Z,18.37
2019-04-11T04:15:42.134Z,18.37
2019-04-11T04:16:55.326Z,18.37
2019-04-11T04:18:15.085Z,18.37
2019-04-11T04:19:38.113Z,18.37
2019-04-11T04:20:55.345Z,18.37
2019-04-11T04:22:07.260Z,18.31
2019-04-11T04:23:12.355Z,18.31
2019-04-11T04:24:34.227Z,18.31
2019-04-11T04:25:28.540Z,18.31
2019-04-11T04:26:26.843Z,18.31
2019-04-11T04:27:27.475Z,18.31
2019-04-11T04:28:23.712Z,18.31
2019-04-11T04:29:21.883Z,18.31
2019-04-11T04:30:21.511Z,18.31
2019-04-11T04:31:18.505Z,18.31
2019-04-11T04:32:16.365Z,18.31
2019-04-11T04:33:14.469Z,18.31
2019-04-11T04:34:11.462Z,18.31
2019-04-11T04:35:12.767Z,18.31
2019-04-11T04:36:10.396Z,18.31
2019-04-11T04:37:05.879Z,18.31
2019-04-11T04:38:05.200Z,18.31
2019-04-11T04:39:03.624Z,18.31
2019-04-11T04:40:21.166Z,18.31
2019-04-11T04:41:13.457Z,18.31
2019-04-11T04:42:06.036Z,18.31
2019-04-11T04:42:58.257Z,18.31
2019-04-11T04:43:55.342Z,18.31
2019-04-11T04:44:53.853Z,18.31
2019-04-11T04:46:08.813Z,18.31
2019-04-11T04:47:00.084Z,18.31
2019-04-11T04:47:54.841Z,18.31
2019-04-11T04:48:48.864Z,18.31
2019-04-11T04:49:45.956Z,18.31
2019-04-11T04:50:44.850Z,18.31
2019-04-11T04:51:43.538Z,18.31
2019-04-11T04:52:40.869Z,18.31
2019-04-11T04:53:38.888Z,18.31
2019-04-11T04:54:36.468Z,18.31
2019-04-11T04:55:34.635Z,18.31
2019-04-11T04:56:32.465Z,18.31
2019-04-11T04:57:31.822Z,18.31
2019-04-11T04:58:29.334Z,18.31
2019-04-11T04:59:27.847Z,18.31
2019-04-11T05:00:25.429Z,18.25
2019-04-11T05:01:23.849Z,18.25
2019-04-11T05:02:20.829Z,18.25
2019-04-11T05:03:17.965Z,18.25
2019-04-11T05:04:15.776Z,18.25
2019-04-11T05:05:13.625Z,18.25
2019-04-11T05:06:11.960Z,18.25
2019-04-11T05:07:09.630Z,18.25
2019-04-11T05:08:08.181Z,18.25
2019-04-11T05:09:06.554Z,18.25
2019-04-11T05:10:06.202Z,18.25
2019-04-11T05:11:02.304Z,18.25
2019-04-11T05:11:59.188Z,18.25
2019-04-11T05:12:56.982Z,18.25
2019-04-11T05:13:54.520Z,18.25
2019-04-11T05:14:52.014Z,18.25
2019-04-11T05:15:49.135Z,18.25
2019-04-11T05:16:48.208Z,18.25
2019-04-11T05:17:46.157Z,18.25
2019-04-11T05:18:43.965Z,18.25
2019-04-11T05:19:40.729Z,18.25
2019-04-11T05:20:38.546Z,18.25
2019-04-11T05:21:35.336Z,18.25
2019-04-11T05:22:33.126Z,18.25
2019-04-11T05:23:29.949Z,18.25
2019-04-11T05:24:26.641Z,18.25
2019-04-11T05:25:23.328Z,18.25
2019-04-11T05:26:19.929Z,18.25
2019-04-11T05:27:17.440Z,18.25
2019-04-11T05:28:14.156Z,18.25
2019-04-11T05:29:11.152Z,18.25
2019-04-11T05:30:09.327Z,18.25
2019-04-11T05:31:06.185Z,18.25
2019-04-11T05:32:03.162Z,18.25
2019-04-11T05:32:59.901Z,18.25
2019-04-11T05:33:56.509Z,18.25
2019-04-11T05:34:53.210Z,18.25
2019-04-11T05:35:50.106Z,18.25
2019-04-11T05:36:47.153Z,18.25
2019-04-11T05:37:45.046Z,18.25
2019-04-11T05:38:42.181Z,18.25
2019-04-11T05:39:39.856Z,18.25
2019-04-11T05:40:37.749Z,18.25
2019-04-11T05:41:34.529Z,18.25
2019-04-11T05:42:31.369Z,18.25
2019-04-11T05:43:31.436Z,18.25
2019-04-11T05:44:26.573Z,18.25
2019-04-11T05:45:25.678Z,18.25
2019-04-11T05:46:31.363Z,18.25
2019-04-11T05:47:21.337Z,18.25
2019-04-11T05:48:41.151Z,18.25
2019-04-11T05:49:48.853Z,18.25
2019-04-11T05:50:50.487Z,18.25
2019-04-11T05:51:56.734Z,18.25
2019-04-11T05:52:52.514Z,18.25
2019-04-11T05:53:52.637Z,18.25
2019-04-11T05:54:54.350Z,18.19
2019-04-11T05:55:51.109Z,18.19
2019-04-11T05:56:57.513Z,18.19
2019-04-11T05:57:54.393Z,18.19
2019-04-11T05:58:51.569Z,18.19
2019-04-11T05:59:52.072Z,18.19
2019-04-11T06:01:06.246Z,18.19
2019-04-11T06:02:09.375Z,18.19
2019-04-11T06:03:06.141Z,18.19
2019-04-11T06:04:14.151Z,18.19
2019-04-11T06:05:23.797Z,18.19
2019-04-11T06:06:40.193Z,18.19
2019-04-11T06:07:47.187Z,18.19
2019-04-11T06:08:42.018Z,18.19
2019-04-11T06:09:41.645Z,18.19
2019-04-11T06:10:56.724Z,18.19
2019-04-11T06:12:10.189Z,18.12
2019-04-11T06:13:14.896Z,18.12
2019-04-11T06:14:41.566Z,18.12
2019-04-11T06:15:43.892Z,18.06
2019-04-11T06:16:47.253Z,18.00
2019-04-11T06:17:41.144Z,18.00
2019-04-11T06:19:00.548Z,17.94
2019-04-11T06:20:15.545Z,17.87
2019-04-11T06:21:26.241Z,17.81
2019-04-11T06:22:23.516Z,17.75
2019-04-11T06:23:59.290Z,17.69
2019-04-11T06:25:19.280Z,17.69
2019-04-11T06:26:34.634Z,17.62
2019-04-11T06:27:50.808Z,17.62
2019-04-11T06:28:49.275Z,17.62
2019-04-11T06:30:12.342Z,17.62
2019-04-11T06:31:31.786Z,17.56
2019-04-11T06:32:48.016Z,17.56
2019-04-11T06:33:55.108Z,17.56
2019-04-11T06:34:57.760Z,17.56
2019-04-11T06:36:14.100Z,17.56
2019-04-11T06:37:33.984Z,17.50
2019-04-11T06:38:56.811Z,17.50
2019-04-11T06:39:58.286Z,17.50
2019-04-11T06:41:01.963Z,17.50
2019-04-11T06:42:22.928Z,17.56
2019-04-11T06:43:38.624Z,17.62
2019-04-11T06:44:46.437Z,17.75
2019-04-11T06:46:02.969Z,17.87
2019-04-11T06:47:18.820Z,18.12
2019-04-11T06:48:53.946Z,18.50
2019-04-11T06:50:19.489Z,19.06
2019-04-11T06:51:24.004Z,25.62
2019-04-11T06:52:21.100Z,26.56
2019-04-11T06:53:21.621Z,27.75
2019-04-11T06:54:28.626Z,31.25
2019-04-11T06:55:44.650Z,34.00
2019-04-11T06:56:43.661Z,34.88
2019-04-11T06:57:40.516Z,34.69
2019-04-11T06:58:40.703Z,34.31
2019-04-11T06:59:40.924Z,34.44
2019-04-11T07:00:41.006Z,34.75
2019-04-11T07:01:40.432Z,35.00
2019-04-11T07:02:41.037Z,35.13
2019-04-11T07:03:42.797Z,35.00
2019-04-11T07:04:51.765Z,34.13
2019-04-11T07:05:48.953Z,32.31
2019-04-11T07:06:48.104Z,30.37
2019-04-11T07:07:49.384Z,29.06
2019-04-11T07:09:05.486Z,29.19
2019-04-11T07:10:04.209Z,30.75
2019-04-11T07:11:04.022Z,32.25
2019-04-11T07:12:07.730Z,33.63
2019-04-11T07:13:08.315Z,34.75
2019-04-11T07:14:33.722Z,35.56
2019-04-11T07:15:37.702Z,36.38
2019-04-11T07:16:34.619Z,36.94
2019-04-11T07:17:49.488Z,37.31
2019-04-11T07:18:57.346Z,37.69
2019-04-11T07:20:20.696Z,38.00
2019-04-11T07:21:17.485Z,38.31
2019-04-11T07:22:34.702Z,38.56
2019-04-11T07:23:49.693Z,38.69
2019-04-11T07:25:06.062Z,38.38
2019-04-11T07:26:32.961Z,38.06
2019-04-11T07:27:30.541Z,37.75
2019-04-11T07:28:50.223Z,37.56
2019-04-11T07:30:09.380Z,37.31
2019-04-11T07:31:25.400Z,37.13
2019-04-11T07:32:25.695Z,36.75
2019-04-11T07:33:37.655Z,36.19
2019-04-11T07:35:04.670Z,35.25
2019-04-11T07:36:21.022Z,33.75
2019-04-11T07:37:49.539Z,32.19
2019-04-11T07:38:52.176Z,31.00
2019-04-11T07:40:24.174Z,31.44
2019-04-11T07:41:41.723Z,33.75
2019-04-11T07:42:52.827Z,36.06
2019-04-11T07:43:50.038Z,37.56
2019-04-11T07:44:53.726Z,37.94
2019-04-11T07:46:25.731Z,37.88
2019-04-11T07:47:33.654Z,37.63
2019-04-11T07:48:38.777Z,37.38
2019-04-11T07:49:35.553Z,37.19
2019-04-11T07:50:33.309Z,37.00
2019-04-11T07:51:32.107Z,36.63
2019-04-11T07:52:32.660Z,36.13
2019-04-11T07:53:28.579Z,35.44
2019-04-11T07:54:26.044Z,34.56
2019-04-11T07:55:24.097Z,33.56
2019-04-11T07:56:52.765Z,32.44
2019-04-11T07:57:53.173Z,31.06
2019-04-11T07:58:52.668Z,31.12
2019-04-11T08:00:19.268Z,32.31
2019-04-11T08:01:35.874Z,34.88
2019-04-11T08:03:01.976Z,36.88
2019-04-11T08:04:17.288Z,37.69
2019-04-11T08:05:34.596Z,37.63
2019-04-11T08:06:52.042Z,37.38
2019-04-11T08:08:08.246Z,37.13
2019-04-11T08:09:41.408Z,36.75
2019-04-11T08:10:43.689Z,36.00
2019-04-11T08:11:52.038Z,35.38
2019-04-11T08:12:49.701Z,34.44
2019-04-11T08:14:04.244Z,33.56
2019-04-11T08:15:21.600Z,32.25
2019-04-11T08:16:53.283Z,31.06
2019-04-11T08:17:50.157Z,31.37
2019-04-11T08:19:06.260Z,32.69
2019-04-11T08:20:21.411Z,34.94
2019-04-11T08:21:37.268Z,36.75
2019-04-11T08:22:36.236Z,37.44
2019-04-11T08:23:33.873Z,37.44
2019-04-11T08:24:36.616Z,37.25
2019-04-11T08:25:59.913Z,37.06
2019-04-11T08:27:15.507Z,36.56
2019-04-11T08:28:14.025Z,36.00
2019-04-11T08:29:14.059Z,35.44
2019-04-11T08:30:10.750Z,34.69
2019-04-11T08:31:27.145Z,33.94
2019-04-11T08:32:38.249Z,32.75
2019-04-11T08:33:35.195Z,31.69
2019-04-11T08:34:35.470Z,30.94
2019-04-11T08:35:53.429Z,30.94
2019-04-11T08:37:19.323Z,32.44
2019-04-11T08:38:36.261Z,34.88
2019-04-11T08:39:37.379Z,36.63
2019-04-11T08:40:42.961Z,37.13
2019-04-11T08:42:07.985Z,37.13
2019-04-11T08:43:10.928Z,36.81
2019-04-11T08:44:12.781Z,36.50
2019-04-11T08:45:12.346Z,36.06
2019-04-11T08:46:12.878Z,35.56
2019-04-11T08:47:14.498Z,35.00
2019-04-11T08:48:11.205Z,34.25
2019-04-11T08:49:19.925Z,33.44
2019-04-11T08:50:20.635Z,32.44
2019-04-11T08:51:17.498Z,31.50
2019-04-11T08:52:40.331Z,30.81
2019-04-11T08:53:55.275Z,31.12
2019-04-11T08:55:21.020Z,32.81
2019-04-11T08:56:18.983Z,35.19
2019-04-11T08:57:27.971Z,36.44
2019-04-11T08:58:34.733Z,36.88
2019-04-11T09:00:06.369Z,36.75
2019-04-11T09:01:03.824Z,36.06
2019-04-11T09:02:00.538Z,35.50
2019-04-11T09:03:15.644Z,34.88
2019-04-11T09:04:24.025Z,33.88
2019-04-11T09:05:40.866Z,32.88
2019-04-11T09:06:38.995Z,31.87
2019-04-11T09:07:41.496Z,31.19
2019-04-11T09:09:00.781Z,30.56
2019-04-11T09:10:15.788Z,30.00
2019-04-11T09:11:39.518Z,29.44
2019-04-11T09:12:38.813Z,28.81
2019-04-11T09:13:55.671Z,28.44
2019-04-11T09:15:12.708Z,28.00
2019-04-11T09:16:37.504Z,27.69
2019-04-11T09:17:38.732Z,27.44
2019-04-11T09:18:36.480Z,27.25
2019-04-11T09:19:51.518Z,27.13
2019-04-11T09:21:07.719Z,27.00
2019-04-11T09:22:22.687Z,26.87
2019-04-11T09:23:21.744Z,26.69
2019-04-11T09:24:30.820Z,26.62
2019-04-11T09:25:48.753Z,26.56
2019-04-11T09:27:02.443Z,26.44
2019-04-11T09:28:06.260Z,26.31
2019-04-11T09:29:03.993Z,26.25
2019-04-11T09:30:04.466Z,26.12
2019-04-11T09:31:21.244Z,26.06
2019-04-11T09:32:36.409Z,25.94
2019-04-11T09:33:51.539Z,25.81
2019-04-11T09:34:57.634Z,25.75
2019-04-11T09:35:55.469Z,25.62
2019-04-11T09:37:01.232Z,25.56
2019-04-11T09:37:57.986Z,25.50
2019-04-11T09:38:54.956Z,25.44
2019-04-11T09:40:08.300Z,25.37
2019-04-11T09:41:24.792Z,25.25
2019-04-11T09:42:39.850Z,25.19
2019-04-11T09:43:36.550Z,25.06
2019-04-11T09:44:49.264Z,25.00
2019-04-11T09:46:12.354Z,24.94
2019-04-11T09:47:28.292Z,24.81
2019-04-11T09:48:44.145Z,24.75
2019-04-11T09:49:50.108Z,24.69
2019-04-11T09:51:05.176Z,24.63
2019-04-11T09:52:09.690Z,24.56
2019-04-11T09:53:06.708Z,24.50
2019-04-11T09:54:17.516Z,24.44
2019-04-11T09:55:33.777Z,24.37
2019-04-11T09:56:45.313Z,24.31
2019-04-11T09:57:46.169Z,24.25
2019-04-11T09:58:44.205Z,24.19
2019-04-11T10:00:01.836Z,24.12
2019-04-11T10:01:16.710Z,24.06
2019-04-11T10:02:31.584Z,24.00
2019-04-11T10:03:29.328Z,23.94
2019-04-11T10:04:27.645Z,23.94
2019-04-11T10:05:32.206Z,23.87
2019-04-11T10:06:47.062Z,23.81
2019-04-11T10:07:57.968Z,23.75
2019-04-11T10:08:57.692Z,23.69
2019-04-11T10:10:22.640Z,23.62
2019-04-11T10:11:54.941Z,23.56
2019-04-11T10:13:10.850Z,23.44
2019-04-11T10:14:13.486Z,23.38
2019-04-11T10:15:11.395Z,23.38
2019-04-11T10:16:46.533Z,23.31
2019-04-11T10:18:03.039Z,23.25
2019-04-11T10:19:05.492Z,23.19
2019-04-11T10:20:06.299Z,23.12
2019-04-11T10:21:03.222Z,23.12
2019-04-11T10:22:20.615Z,23.06
2019-04-11T10:23:36.913Z,23.00
2019-04-11T10:24:56.816Z,23.00
2019-04-11T10:25:56.909Z,22.94
2019-04-11T10:27:00.548Z,22.87
2019-04-11T10:28:19.652Z,22.81
2019-04-11T10:29:41.904Z,22.81
2019-04-11T10:30:57.973Z,22.75
2019-04-11T10:31:55.010Z,22.69
2019-04-11T10:32:53.786Z,22.69
2019-04-11T10:34:28.169Z,22.62
2019-04-11T10:35:43.013Z,22.62
2019-04-11T10:36:47.416Z,22.56
2019-04-11T10:37:44.346Z,22.50
2019-04-11T10:38:41.007Z,22.50
2019-04-11T10:39:57.554Z,22.44
2019-04-11T10:41:14.674Z,22.44
2019-04-11T10:42:12.739Z,22.37
2019-04-11T10:43:09.839Z,22.31
2019-04-11T10:44:07.586Z,22.31
2019-04-11T10:45:24.866Z,22.31
2019-04-11T10:46:41.766Z,22.25
2019-04-11T10:47:38.744Z,22.19
2019-04-11T10:48:50.437Z,22.19
2019-04-11T10:50:07.040Z,22.13
2019-04-11T10:51:42.310Z,22.13
2019-04-11T10:52:42.544Z,22.06
2019-04-11T10:53:41.503Z,22.06
2019-04-11T10:54:38.877Z,22.00
2019-04-11T10:55:55.052Z,22.00
2019-04-11T10:57:18.068Z,22.00
2019-04-11T10:58:18.833Z,21.94
2019-04-11T10:59:15.540Z,21.94
2019-04-11T11:00:20.970Z,21.87
2019-04-11T11:01:56.070Z,21.87
2019-04-11T11:03:18.469Z,21.81
2019-04-11T11:04:36.835Z,21.81
2019-04-11T11:05:34.656Z,21.75
2019-04-11T11:06:31.540Z,21.75
2019-04-11T11:07:30.765Z,21.69
2019-04-11T11:08:51.161Z,21.69
2019-04-11T11:10:01.506Z,21.62
2019-04-11T11:11:01.101Z,21.62
2019-04-11T11:12:21.073Z,21.62
2019-04-11T11:13:27.836Z,21.56
2019-04-11T11:14:42.947Z,21.56
2019-04-11T11:15:49.794Z,21.56
2019-04-11T11:17:08.988Z,21.50
2019-04-11T11:18:53.896Z,21.50
2019-04-11T11:20:11.968Z,21.44
2019-04-11T11:21:05.164Z,21.44
2019-04-11T11:22:19.302Z,21.44
2019-04-11T11:23:35.299Z,21.37
2019-04-11T11:24:52.461Z,21.37
2019-04-11T11:26:07.008Z,21.31
2019-04-11T11:27:05.630Z,21.31
2019-04-11T11:28:03.563Z,21.31
2019-04-11T11:29:19.234Z,21.25
2019-04-11T11:30:39.794Z,21.25
2019-04-11T11:31:38.646Z,21.25
2019-04-11T11:32:38.417Z,21.19
2019-04-11T11:33:35.179Z,21.19
2019-04-11T11:34:55.047Z,21.19
2019-04-11T11:36:10.711Z,21.12
2019-04-11T11:37:35.455Z,21.12
2019-04-11T11:38:32.149Z,21.12
2019-04-11T11:39:37.388Z,21.12
2019-04-11T11:41:05.860Z,21.06
2019-04-11T11:42:22.129Z,21.06
2019-04-11T11:43:21.419Z,21.00
2019-04-11T11:44:19.586Z,21.00
2019-04-11T11:45:37.385Z,21.00
2019-04-11T11:46:50.358Z,21.00
2019-04-11T11:48:14.978Z,20.94
2019-04-11T11:49:12.461Z,20.94
2019-04-11T11:50:15.615Z,20.94
2019-04-11T11:51:40.188Z,20.88
2019-04-11T11:52:54.921Z,20.88
2019-04-11T11:54:09.689Z,20.88
2019-04-11T11:55:08.344Z,20.88
2019-04-11T11:56:05.391Z,20.81
2019-04-11T11:57:06.657Z,20.81
2019-04-11T11:58:26.009Z,20.81
2019-04-11T11:59:37.101Z,20.81
2019-04-11T12:00:33.805Z,20.81
2019-04-11T12:01:31.540Z,20.75
2019-04-11T12:02:38.945Z,20.75
2019-04-11T12:04:03.068Z,20.75
2019-04-11T12:05:12.458Z,20.75
2019-04-11T12:06:05.432Z,20.69
2019-04-11T12:07:06.008Z,20.69
2019-04-11T12:08:22.318Z,20.69
2019-04-11T12:09:44.812Z,20.69
2019-04-11T12:10:53.451Z,20.69
2019-04-11T12:11:55.449Z,20.62
2019-04-11T12:13:24.186Z,20.62
2019-04-11T12:14:44.947Z,20.62
2019-04-11T12:16:00.164Z,20.62
2019-04-11T12:17:16.456Z,20.62
2019-04-11T12:18:43.938Z,20.56
2019-04-11T12:19:50.684Z,20.56
2019-04-11T12:20:46.092Z,20.56
2019-04-11T12:21:43.288Z,20.56
2019-04-11T12:22:42.773Z,20.50
2019-04-11T12:24:03.819Z,20.50
2019-04-11T12:25:10.950Z,20.50
2019-04-11T12:26:07.745Z,20.50
2019-04-11T12:27:26.964Z,20.50
2019-04-11T12:28:37.290Z,20.44
2019-04-11T12:29:57.483Z,20.44
2019-04-11T12:31:01.399Z,20.44
2019-04-11T12:31:57.712Z,20.44
2019-04-11T12:33:01.408Z,20.44
2019-04-11T12:34:16.489Z,20.37
2019-04-11T12:35:44.666Z,20.37
2019-04-11T12:36:46.613Z,20.37
2019-04-11T12:37:55.879Z,20.37
2019-04-11T12:39:12.032Z,20.37
2019-04-11T12:40:27.090Z,20.37
2019-04-11T12:41:30.836Z,20.31
2019-04-11T12:42:30.641Z,20.31
2019-04-11T12:43:40.005Z,20.31
2019-04-11T12:44:45.008Z,20.31
2019-04-11T12:46:04.272Z,20.31
2019-04-11T12:47:17.853Z,20.31
2019-04-11T12:48:14.473Z,20.25
2019-04-11T12:49:22.542Z,20.25
2019-04-11T12:50:37.585Z,20.25
2019-04-11T12:52:09.106Z,20.25
2019-04-11T12:53:31.615Z,20.25
2019-04-11T12:54:29.429Z,20.19
2019-04-11T12:55:45.631Z,20.19
2019-04-11T12:57:07.560Z,20.19
2019-04-11T12:58:26.428Z,20.19
2019-04-11T12:59:26.499Z,20.19
2019-04-11T13:00:35.300Z,20.19
2019-04-11T13:01:57.538Z,20.19
2019-04-11T13:03:12.593Z,20.12
2019-04-11T13:04:27.654Z,20.12
2019-04-11T13:05:24.381Z,20.12
2019-04-11T13:06:35.288Z,20.12
2019-04-11T13:08:00.189Z,20.06
2019-04-11T13:09:19.072Z,20.06
2019-04-11T13:10:35.265Z,20.06
2019-04-11T13:11:32.434Z,20.06
2019-04-11T13:12:54.425Z,20.00
2019-04-11T13:14:13.613Z,20.00
2019-04-11T13:15:26.997Z,20.00
2019-04-11T13:16:25.382Z,19.94
2019-04-11T13:17:26.612Z,19.94
2019-04-11T13:18:34.092Z,19.94
2019-04-11T13:20:05.350Z,19.94
2019-04-11T13:21:05.851Z,19.87
2019-04-11T13:22:08.091Z,19.87
2019-04-11T13:23:13.447Z,19.87
2019-04-11T13:24:35.591Z,19.87
2019-04-11T13:25:57.820Z,19.94
2019-04-11T13:27:14.036Z,20.00
2019-04-11T13:28:10.735Z,20.06
2019-04-11T13:29:26.947Z,20.12
2019-04-11T13:30:42.049Z,20.19
2019-04-11T13:31:57.425Z,20.25
2019-04-11T13:33:15.185Z,20.37
2019-04-11T13:34:11.978Z,20.50
2019-04-11T13:35:19.353Z,20.56
2019-04-11T13:36:24.666Z,20.69
2019-04-11T13:37:39.992Z,20.75
2019-04-11T13:38:47.742Z,20.88
2019-04-11T13:39:47.462Z,20.94
2019-04-11T13:41:03.653Z,21.00
2019-04-11T13:42:25.909Z,21.06
2019-04-11T13:43:42.102Z,21.12
2019-04-11T13:44:40.120Z,21.12
2019-04-11T13:45:45.121Z,21.19
2019-04-11T13:47:00.110Z,21.19
2019-04-11T13:48:31.695Z,21.19
2019-04-11T13:49:43.312Z,21.25
2019-04-11T13:50:40.013Z,21.31
2019-04-11T13:51:50.801Z,21.31
2019-04-11T13:53:05.665Z,22.94
2019-04-11T13:54:36.511Z,26.25
2019-04-11T13:55:35.977Z,25.75
2019-04-11T13:56:40.797Z,25.06
2019-04-11T13:57:56.993Z,25.19
2019-04-11T13:59:28.504Z,27.00